Time;durP1;ratioP1;P1;durP2;ratioP2;P2;SDS_P1;SDS_P2;PMS_P1;PMS_P2;Temp;Humidity;BMP_temperature;BMP_pressure;BME280_temperature;BME280_humidity;BME280_pressure;Samples;Min_cycle;Max_cycle;Signal;HPM_P1;HPM_P2
2023/04/28 00:01:05;;;;;;;8.23;4.27;;;;;;;11.99;100.00;98894.78;4974860;28;20188;-78
2023/04/28 00:03:33;;;;;;;8.00;4.50;;;;;;;12.06;100.00;98888.97;4966959;28;20199;-78
2023/04/28 00:06:03;;;;;;;7.67;3.80;;;;;;;12.26;100.00;98891.88;4968483;28;20283;-77
2023/04/28 00:08:31;;;;;;;9.53;4.50;;;;;;;12.12;100.00;98883.22;4976212;28;20239;-78
2023/04/28 00:10:59;;;;;;;7.80;4.60;;;;;;;12.11;100.00;98881.53;5028714;28;20267;-78
2023/04/28 00:13:27;;;;;;;6.10;4.40;;;;;;;12.21;100.00;98877.22;5032022;28;20192;-77
2023/04/28 00:15:56;;;;;;;6.27;4.40;;;;;;;12.14;100.00;98868.88;5030612;28;20202;-77
2023/04/28 00:18:27;;;;;;;7.80;4.47;;;;;;;12.17;100.00;98865.16;5029451;28;20208;-77
2023/04/28 00:20:56;;;;;;;8.83;4.47;;;;;;;12.04;100.00;98865.22;5031930;28;20217;-78
2023/04/28 00:23:24;;;;;;;7.17;4.67;;;;;;;12.07;100.00;98864.16;5032516;28;20210;-78
2023/04/28 00:25:53;;;;;;;8.07;4.97;;;;;;;12.04;100.00;98858.09;5027229;28;20664;-76
2023/04/28 00:28:21;;;;;;;9.27;4.63;;;;;;;11.93;100.00;98863.34;5027621;28;20243;-77
2023/04/28 00:31:01;;;;;;;6.57;4.60;;;;;;;11.84;100.00;98847.28;5031124;28;20201;-78
2023/04/28 00:33:31;;;;;;;6.67;4.40;;;;;;;11.84;100.00;98841.97;5028610;28;20204;-77
2023/04/28 00:36:00;;;;;;;8.10;4.20;;;;;;;11.80;100.00;98845.81;5035200;28;20198;-78
2023/04/28 00:38:29;;;;;;;5.40;4.10;;;;;;;11.86;100.00;98840.88;5027508;28;20194;-78
2023/04/28 00:40:57;;;;;;;8.20;4.53;;;;;;;11.96;100.00;98841.88;5030677;28;20205;-78
2023/04/28 00:43:25;;;;;;;7.20;4.20;;;;;;;11.95;100.00;98834.03;4935406;29;20252;-77
2023/04/28 00:45:53;;;;;;;9.07;4.30;;;;;;;11.79;100.00;98834.31;4935586;29;20217;-78
2023/04/28 00:48:23;;;;;;;8.47;4.77;;;;;;;11.90;100.00;98831.75;4931137;29;20221;-78
2023/04/28 00:50:53;;;;;;;9.83;5.03;;;;;;;11.86;100.00;98827.63;4933212;29;20208;-78
2023/04/28 00:53:21;;;;;;;8.23;4.57;;;;;;;11.97;100.00;98818.88;4924767;29;20624;-78
2023/04/28 00:55:52;;;;;;;8.47;4.43;;;;;;;11.78;100.00;98823.84;4915403;29;20201;-77
2023/04/28 00:58:20;;;;;;;8.40;4.57;;;;;;;11.80;100.00;98820.13;4935459;29;20629;-78
2023/04/28 01:00:49;;;;;;;8.37;4.50;;;;;;;11.73;100.00;98814.38;4952177;28;20202;-78
2023/04/28 01:03:17;;;;;;;9.23;4.73;;;;;;;11.86;100.00;98811.69;5027104;28;20553;-78
2023/04/28 01:05:45;;;;;;;11.60;4.93;;;;;;;11.85;100.00;98814.47;5031888;28;20308;-78
2023/04/28 01:08:15;;;;;;;10.17;4.63;;;;;;;11.80;100.00;98811.31;5028332;28;20201;-77
2023/04/28 01:10:44;;;;;;;10.03;5.17;;;;;;;11.58;100.00;98802.28;5028332;28;20218;-78
2023/04/28 01:13:12;;;;;;;10.80;5.23;;;;;;;11.65;100.00;98800.00;5027725;28;20205;-78
2023/04/28 01:15:40;;;;;;;7.87;4.93;;;;;;;11.66;100.00;98801.69;5034545;28;20204;-78
2023/04/28 01:18:09;;;;;;;6.87;4.50;;;;;;;11.53;100.00;98799.09;5028021;28;20208;-78
2023/04/28 01:20:39;;;;;;;9.40;4.57;;;;;;;11.41;100.00;98794.72;5031296;28;20194;-78
2023/04/28 01:23:12;;;;;;;6.43;4.87;;;;;;;11.35;100.00;98789.84;4970380;28;20258;-78
2023/04/28 01:25:43;;;;;;;7.33;4.87;;;;;;;11.36;100.00;98788.88;4970953;28;20230;-78
2023/04/28 01:28:12;;;;;;;6.40;4.43;;;;;;;11.33;100.00;98791.78;4939021;28;20196;-78
2023/04/28 01:30:40;;;;;;;9.10;4.90;;;;;;;11.38;100.00;98784.31;4973486;28;20196;-77
2023/04/28 01:33:08;;;;;;;8.33;4.83;;;;;;;11.36;100.00;98781.78;4981127;28;20212;-78
2023/04/28 01:35:36;;;;;;;10.60;4.90;;;;;;;11.32;100.00;98782.13;4982123;28;20235;-78
2023/04/28 01:38:04;;;;;;;8.27;4.67;;;;;;;11.39;100.00;98784.22;4977141;28;20199;-78
2023/04/28 01:40:32;;;;;;;8.27;4.50;;;;;;;11.35;100.00;98782.72;4984948;28;20193;-78
2023/04/28 01:43:02;;;;;;;10.23;4.80;;;;;;;11.30;100.00;98776.94;5027728;28;20205;-78
2023/04/28 01:45:30;;;;;;;9.47;4.70;;;;;;;11.38;100.00;98782.50;5025171;28;20230;-78
2023/04/28 01:47:58;;;;;;;9.33;4.90;;;;;;;11.45;100.00;98778.44;5026039;28;20731;-77
2023/04/28 01:50:26;;;;;;;11.83;4.93;;;;;;;11.26;100.00;98772.81;5028766;28;20208;-77
2023/04/28 01:52:54;;;;;;;7.63;4.77;;;;;;;11.28;100.00;98768.22;5033953;28;20248;-78
2023/04/28 01:55:23;;;;;;;7.00;5.10;;;;;;;11.33;100.00;98768.75;5033764;28;20201;-78
2023/04/28 01:57:51;;;;;;;9.33;4.80;;;;;;;11.36;100.00;98765.03;5028592;28;20194;-78
2023/04/28 02:00:21;;;;;;;6.83;4.70;;;;;;;11.32;100.00;98759.09;5029168;28;20201;-78
2023/04/28 02:02:50;;;;;;;7.37;4.77;;;;;;;11.34;100.00;98753.69;5025763;28;20202;-77
2023/04/28 02:05:18;;;;;;;6.67;4.80;;;;;;;11.36;100.00;98744.66;5030988;28;20217;-77
2023/04/28 02:07:47;;;;;;;7.23;5.23;;;;;;;11.27;100.00;98749.78;5027993;28;20205;-77
2023/04/28 02:10:15;;;;;;;7.17;4.90;;;;;;;11.33;100.00;98755.50;5028144;28;20346;-78
2023/04/28 02:12:43;;;;;;;9.17;5.43;;;;;;;11.38;100.00;98763.94;5033339;28;20202;-78
2023/04/28 02:15:11;;;;;;;11.93;5.87;;;;;;;11.40;100.00;98761.19;5028464;28;20244;-78
2023/04/28 02:17:41;;;;;;;10.87;5.97;;;;;;;11.40;100.00;98763.84;5028590;28;20193;-78
2023/04/28 02:20:13;;;;;;;7.53;5.20;;;;;;;11.39;100.00;98760.34;5025651;28;20285;-78
2023/04/28 02:22:41;;;;;;;8.87;5.27;;;;;;;11.32;100.00;98758.25;5030524;28;20229;-78
2023/04/28 02:25:09;;;;;;;7.90;4.93;;;;;;;11.27;100.00;98750.63;5028225;28;20280;-77
2023/04/28 02:27:38;;;;;;;8.77;5.70;;;;;;;11.17;100.00;98747.81;5033244;28;20603;-78
2023/04/28 02:30:07;;;;;;;7.87;5.50;;;;;;;11.12;100.00;98751.78;5029405;28;20232;-78
2023/04/28 02:32:35;;;;;;;6.90;5.40;;;;;;;11.11;100.00;98752.72;5033197;28;20194;-77
2023/04/28 02:35:06;;;;;;;11.20;6.10;;;;;;;11.10;100.00;98751.88;5031886;28;20193;-78
2023/04/28 02:37:35;;;;;;;7.23;5.80;;;;;;;10.93;100.00;98757.56;5033031;28;20236;-78
2023/04/28 02:40:03;;;;;;;7.03;5.50;;;;;;;10.96;100.00;98753.81;5030033;28;20201;-78
2023/04/28 02:42:31;;;;;;;8.27;5.37;;;;;;;10.87;100.00;98752.69;5023862;28;20232;-77
2023/04/28 02:44:59;;;;;;;7.17;5.77;;;;;;;10.93;100.00;98746.94;5029095;28;20715;-78
2023/04/28 02:47:27;;;;;;;9.53;5.70;;;;;;;10.90;100.00;98739.19;5028229;28;20197;-78
2023/04/28 02:49:56;;;;;;;9.77;5.70;;;;;;;10.83;100.00;98746.75;5024593;28;20212;-77
2023/04/28 02:52:25;;;;;;;7.97;5.70;;;;;;;10.78;100.00;98750.69;5025339;28;20202;-78
2023/04/28 02:54:56;;;;;;;7.03;5.30;;;;;;;10.73;100.00;98745.72;5025136;28;20202;-78
2023/04/28 02:57:25;;;;;;;8.70;5.43;;;;;;;10.76;100.00;98742.00;5027391;28;20204;-78
2023/04/28 02:59:53;;;;;;;10.77;5.63;;;;;;;10.81;100.00;98737.25;5027258;28;20625;-78
2023/04/28 03:02:21;;;;;;;9.13;5.60;;;;;;;10.70;100.00;98731.84;5024896;28;20209;-77
2023/04/28 03:04:50;;;;;;;9.17;5.40;;;;;;;10.78;100.00;98721.53;5025288;28;20201;-78
2023/04/28 03:07:18;;;;;;;10.27;5.43;;;;;;;10.81;100.00;98711.59;5026926;28;20245;-78
2023/04/28 03:09:48;;;;;;;9.30;6.00;;;;;;;10.82;100.00;98708.00;5032537;28;20252;-77
2023/04/28 03:12:16;;;;;;;7.90;5.87;;;;;;;10.88;100.00;98702.22;5032549;28;20205;-78
2023/04/28 03:14:45;;;;;;;11.87;6.03;;;;;;;10.74;100.00;98705.03;5032378;28;20625;-77
2023/04/28 03:17:14;;;;;;;7.20;5.63;;;;;;;10.81;100.00;98698.34;5032127;28;20244;-78
2023/04/28 03:19:42;;;;;;;10.13;5.90;;;;;;;10.83;100.00;98704.38;5028606;28;20212;-78
2023/04/28 03:22:10;;;;;;;10.00;6.03;;;;;;;10.88;100.00;98698.72;5027175;28;20237;-78
2023/04/28 03:24:38;;;;;;;9.57;6.10;;;;;;;10.85;100.00;98705.09;5028298;28;20251;-78
2023/04/28 03:27:08;;;;;;;10.00;6.17;;;;;;;10.78;100.00;98703.00;5029448;28;20221;-78
2023/04/28 03:29:37;;;;;;;6.50;5.80;;;;;;;10.74;100.00;98705.03;5023871;28;20205;-78
2023/04/28 03:32:06;;;;;;;8.93;6.40;;;;;;;10.62;100.00;98715.69;5020538;28;20248;-78
2023/04/28 03:34:34;;;;;;;9.93;6.60;;;;;;;10.65;100.00;98715.44;5030967;28;20276;-77
2023/04/28 03:37:03;;;;;;;8.87;6.17;;;;;;;10.74;100.00;98712.16;5026883;28;20244;-78
2023/04/28 03:39:31;;;;;;;10.87;6.60;;;;;;;10.67;100.00;98714.38;5026100;28;20221;-77
2023/04/28 03:41:59;;;;;;;9.83;6.60;;;;;;;10.55;100.00;98718.75;5023241;28;20653;-77
2023/04/28 03:44:29;;;;;;;8.67;6.23;;;;;;;10.44;100.00;98721.31;5024290;28;20206;-77
2023/04/28 03:46:57;;;;;;;10.87;6.73;;;;;;;10.12;100.00;98742.03;5032033;28;20221;-77
2023/04/28 03:49:26;;;;;;;10.07;6.80;;;;;;;10.14;100.00;98742.78;5031094;28;20224;-77
2023/04/28 03:51:54;;;;;;;10.97;6.53;;;;;;;10.14;100.00;98747.25;5032252;28;20197;-77
2023/04/28 03:54:22;;;;;;;12.07;7.37;;;;;;;9.94;100.00;98743.28;5026727;28;20206;-77
2023/04/28 03:56:50;;;;;;;14.63;7.57;;;;;;;9.83;100.00;98735.22;5024917;28;20256;-77
2023/04/28 03:59:18;;;;;;;9.63;7.30;;;;;;;9.94;100.00;98738.00;5026810;28;20526;-77
2023/04/28 04:01:48;;;;;;;10.17;6.80;;;;;;;9.97;100.00;98740.44;5027734;28;20226;-77
2023/04/28 04:04:16;;;;;;;13.03;7.13;;;;;;;9.93;100.00;98742.44;5025731;28;20201;-77
2023/04/28 04:06:45;;;;;;;11.40;7.23;;;;;;;9.54;100.00;98738.03;5026424;28;20213;-77
2023/04/28 04:09:14;;;;;;;11.10;7.90;;;;;;;9.43;100.00;98741.41;5027836;28;20260;-77
2023/04/28 04:11:42;;;;;;;10.83;8.00;;;;;;;9.53;100.00;98739.00;5027400;28;20248;-77
2023/04/28 04:14:10;;;;;;;12.33;8.73;;;;;;;9.38;100.00;98740.88;5027606;28;20202;-77
2023/04/28 04:16:39;;;;;;;13.20;8.43;;;;;;;9.35;100.00;98734.91;5028937;28;20194;-77
2023/04/28 04:19:08;;;;;;;13.30;8.80;;;;;;;9.45;100.00;98733.34;5026141;28;20733;-77
2023/04/28 04:21:36;;;;;;;15.70;8.07;;;;;;;9.53;100.00;98730.22;5031649;28;20234;-78
2023/04/28 04:24:05;;;;;;;12.37;8.70;;;;;;;9.67;100.00;98720.41;5028962;28;20248;-77
2023/04/28 04:26:33;;;;;;;12.27;8.03;;;;;;;9.80;100.00;98712.50;5028615;28;20218;-77
2023/04/28 04:29:01;;;;;;;9.57;7.70;;;;;;;9.86;100.00;98708.59;5028245;28;20293;-78
2023/04/28 04:31:30;;;;;;;11.63;8.23;;;;;;;9.96;100.00;98699.09;5035587;28;20198;-77
2023/04/28 04:33:58;;;;;;;9.23;7.50;;;;;;;10.00;100.00;98690.81;5034197;28;20198;-77
2023/04/28 04:36:28;;;;;;;12.27;7.57;;;;;;;9.99;100.00;98697.06;5031186;28;20206;-77
2023/04/28 04:38:56;;;;;;;9.23;7.43;;;;;;;9.98;100.00;98697.16;5034896;28;20194;-77
2023/04/28 04:41:26;;;;;;;11.63;7.67;;;;;;;10.06;100.00;98689.56;5035034;28;20263;-77
2023/04/28 04:43:54;;;;;;;8.57;7.10;;;;;;;10.21;100.00;98693.75;5030352;28;20202;-78
2023/04/28 04:46:22;;;;;;;10.23;7.00;;;;;;;10.32;100.00;98703.63;5034805;28;20217;-77
2023/04/28 04:48:51;;;;;;;11.13;7.30;;;;;;;10.40;100.00;98705.75;5028404;28;20198;-77
2023/04/28 04:51:19;;;;;;;11.47;7.20;;;;;;;10.45;100.00;98704.47;5034761;28;20198;-77
2023/04/28 04:53:49;;;;;;;8.97;7.43;;;;;;;10.50;100.00;98704.97;5034850;28;20197;-77
2023/04/28 04:56:17;;;;;;;11.63;7.57;;;;;;;10.51;100.00;98704.00;5034666;28;20201;-77
2023/04/28 04:58:45;;;;;;;11.70;7.17;;;;;;;10.35;100.00;98706.06;5029846;28;20244;-77
2023/04/28 05:01:14;;;;;;;10.03;7.37;;;;;;;10.41;100.00;98710.91;5034677;28;20263;-77
2023/04/28 05:03:42;;;;;;;15.10;8.30;;;;;;;10.40;100.00;98709.22;5012442;28;20202;-77
2023/04/28 05:06:12;;;;;;;13.17;7.43;;;;;;;10.45;100.00;98708.91;5034652;28;20194;-77
2023/04/28 05:08:40;;;;;;;9.53;7.20;;;;;;;10.65;100.00;98705.69;5031537;28;20365;-77
2023/04/28 05:11:10;;;;;;;9.60;7.47;;;;;;;10.29;100.00;98695.91;5031794;28;20201;-77
2023/04/28 05:13:39;;;;;;;12.37;7.87;;;;;;;10.25;100.00;98690.00;5034703;28;20657;-77
2023/04/28 05:16:07;;;;;;;9.67;7.50;;;;;;;10.50;100.00;98688.25;5028289;28;20194;-77
2023/04/28 05:18:36;;;;;;;9.67;7.33;;;;;;;10.45;100.00;98679.78;5023081;28;20280;-77
2023/04/28 05:21:05;;;;;;;10.80;7.70;;;;;;;10.44;100.00;98673.66;5031336;28;20226;-77
2023/04/28 05:23:33;;;;;;;12.03;7.70;;;;;;;10.26;100.00;98688.19;5034262;28;20202;-77
2023/04/28 05:26:02;;;;;;;14.57;8.20;;;;;;;9.95;100.00;98692.94;5031311;28;20206;-77
2023/04/28 05:28:34;;;;;;;11.27;8.30;;;;;;;10.13;100.00;98684.66;5030303;28;20217;-77
2023/04/28 05:31:02;;;;;;;15.33;8.30;;;;;;;10.12;100.00;98683.81;5034079;28;20228;-77
2023/04/28 05:33:30;;;;;;;13.20;8.37;;;;;;;10.16;100.00;98684.47;5025924;28;20198;-77
2023/04/28 05:35:59;;;;;;;11.90;9.00;;;;;;;10.12;100.00;98690.91;5027654;28;20198;-77
2023/04/28 05:38:27;;;;;;;12.23;8.70;;;;;;;10.17;100.00;98688.81;5028267;28;20247;-77
2023/04/28 05:40:56;;;;;;;11.87;8.77;;;;;;;10.15;100.00;98696.84;5025033;28;20229;-77
2023/04/28 05:43:24;;;;;;;12.77;9.07;;;;;;;10.03;100.00;98695.03;5027667;28;20201;-78
2023/04/28 05:45:54;;;;;;;14.23;8.30;;;;;;;10.16;100.00;98690.59;5033712;28;20202;-77
2023/04/28 05:48:22;;;;;;;14.17;8.93;;;;;;;10.23;100.00;98688.38;5032460;28;20218;-77
2023/04/28 05:50:51;;;;;;;11.97;7.67;;;;;;;10.28;100.00;98691.56;5033895;28;20251;-77
2023/04/28 05:53:20;;;;;;;13.23;9.00;;;;;;;10.22;100.00;98695.47;5033802;28;20255;-77
2023/04/28 05:55:48;;;;;;;13.67;9.17;;;;;;;10.26;100.00;98696.97;5026702;28;20202;-77
2023/04/28 05:58:16;;;;;;;12.10;8.33;;;;;;;10.41;100.00;98692.38;5030614;28;20194;-77
2023/04/28 06:00:44;;;;;;;15.87;8.93;;;;;;;10.47;100.00;98699.06;5025348;28;20209;-77
2023/04/28 06:03:17;;;;;;;11.67;8.60;;;;;;;10.40;100.00;98700.44;5027334;28;20197;-77
2023/04/28 06:05:46;;;;;;;11.87;8.90;;;;;;;10.46;100.00;98697.38;5030596;28;20198;-78
2023/04/28 06:08:14;;;;;;;15.33;9.17;;;;;;;10.45;100.00;98701.81;5025117;28;20218;-78
2023/04/28 06:10:43;;;;;;;11.30;8.50;;;;;;;10.36;100.00;98701.63;4982581;28;20653;-77
2023/04/28 06:13:11;;;;;;;16.50;10.10;;;;;;;10.42;100.00;98702.06;5029735;28;20247;-77
2023/04/28 06:15:41;;;;;;;10.83;8.20;;;;;;;10.49;100.00;98711.22;5033310;28;20281;-77
2023/04/28 06:18:10;;;;;;;11.63;8.47;;;;;;;10.55;100.00;98707.31;5027253;28;20193;-77
2023/04/28 06:20:39;;;;;;;14.97;9.00;;;;;;;10.51;100.00;98716.41;5028605;28;20232;-77
2023/04/28 06:23:08;;;;;;;14.33;9.70;;;;;;;10.53;100.00;98714.53;5030341;28;20248;-77
2023/04/28 06:25:36;;;;;;;15.07;10.00;;;;;;;10.65;100.00;98708.34;5033395;28;20194;-78
2023/04/28 06:28:06;;;;;;;11.77;9.23;;;;;;;10.68;100.00;98707.28;5033219;28;20295;-77
2023/04/28 06:30:35;;;;;;;11.47;8.73;;;;;;;10.70;100.00;98711.50;5030412;28;20240;-78
2023/04/28 06:33:04;;;;;;;12.47;8.93;;;;;;;10.54;100.00;98706.47;5026942;28;20275;-77
2023/04/28 06:35:34;;;;;;;12.93;8.97;;;;;;;10.56;100.00;98712.50;5030522;28;20280;-77
2023/04/28 06:38:04;;;;;;;11.50;9.50;;;;;;;10.61;100.00;98706.84;5027205;28;20267;-78
2023/04/28 06:40:32;;;;;;;12.23;9.37;;;;;;;10.66;100.00;98704.75;5030616;28;20196;-78
2023/04/28 06:43:01;;;;;;;12.47;9.13;;;;;;;10.54;100.00;98698.53;5030171;28;20194;-77
2023/04/28 06:45:29;;;;;;;13.63;9.80;;;;;;;10.51;100.00;98695.22;5028465;28;20198;-77
2023/04/28 06:47:58;;;;;;;13.53;9.23;;;;;;;10.44;100.00;98694.84;5027044;28;20594;-77
2023/04/28 06:50:26;;;;;;;11.87;9.10;;;;;;;10.40;100.00;98697.78;5027669;28;20193;-77
2023/04/28 06:52:54;;;;;;;13.57;9.87;;;;;;;10.36;100.00;98693.69;5028629;28;20201;-77
2023/04/28 06:55:23;;;;;;;15.53;9.67;;;;;;;10.38;100.00;98687.31;5027802;28;20248;-77
2023/04/28 06:57:52;;;;;;;12.43;10.23;;;;;;;10.24;100.00;98688.31;5033087;28;20228;-77
2023/04/28 07:00:20;;;;;;;12.00;9.87;;;;;;;10.38;100.00;98703.19;5028662;28;20201;-77
2023/04/28 07:02:48;;;;;;;16.67;10.37;;;;;;;10.21;100.00;98707.00;5028986;28;20212;-77
2023/04/28 07:05:16;;;;;;;16.10;10.23;;;;;;;10.38;100.00;98716.44;5032850;28;20197;-77
2023/04/28 07:07:47;;;;;;;16.10;10.73;;;;;;;10.25;100.00;98713.81;5029009;28;20275;-78
2023/04/28 07:10:15;;;;;;;12.60;9.67;;;;;;;10.36;100.00;98693.69;5032993;28;20197;-77
2023/04/28 07:12:45;;;;;;;12.63;9.77;;;;;;;10.38;100.00;98699.72;5028304;28;20258;-78
2023/04/28 07:15:13;;;;;;;13.57;9.83;;;;;;;10.29;100.00;98703.84;5027337;28;20198;-77
2023/04/28 07:17:41;;;;;;;14.90;8.97;;;;;;;10.18;100.00;98693.97;5031479;28;20193;-78
2023/04/28 07:20:10;;;;;;;13.27;9.13;;;;;;;10.10;100.00;98695.47;5027038;28;20205;-77
2023/04/28 07:22:38;;;;;;;14.17;9.80;;;;;;;10.18;100.00;98693.13;5032420;28;20237;-77
2023/04/28 07:25:08;;;;;;;12.87;9.20;;;;;;;10.23;100.00;98678.69;5022480;28;20225;-78
2023/04/28 07:27:36;;;;;;;16.13;9.40;;;;;;;10.13;100.00;98661.69;5027170;28;20198;-77
2023/04/28 07:30:08;;;;;;;14.33;11.00;;;;;;;10.20;100.00;98662.13;5032362;28;20193;-78
2023/04/28 07:32:54;;;;;;;16.50;9.73;;;;;;;10.22;100.00;98674.31;5027135;28;20312;-77
2023/04/28 07:35:23;;;;;;;12.90;9.53;;;;;;;10.30;100.00;98692.31;5028967;28;20200;-77
2023/04/28 07:37:51;;;;;;;14.97;10.53;;;;;;;10.32;100.00;98695.69;5029335;28;20236;-77
2023/04/28 07:40:20;;;;;;;14.63;9.47;;;;;;;10.36;100.00;98704.28;5033804;28;20244;-77
2023/04/28 07:42:48;;;;;;;16.50;10.50;;;;;;;10.40;100.00;98698.63;5031707;28;20252;-77
2023/04/28 07:45:18;;;;;;;15.30;10.53;;;;;;;10.39;100.00;98690.81;5028795;28;20201;-77
2023/04/28 07:47:46;;;;;;;13.50;9.33;;;;;;;10.29;100.00;98693.25;5028795;28;20210;-77
2023/04/28 07:50:15;;;;;;;15.47;9.57;;;;;;;10.41;100.00;98684.44;5029392;28;20194;-77
2023/04/28 07:52:43;;;;;;;13.73;10.00;;;;;;;10.40;100.00;98695.16;5024247;28;20205;-77
2023/04/28 07:55:11;;;;;;;12.67;10.67;;;;;;;10.39;100.00;98691.66;5031822;28;20198;-77
2023/04/28 07:57:41;;;;;;;14.53;10.23;;;;;;;10.35;100.00;98690.19;5031555;28;20198;-77
2023/04/28 08:00:10;;;;;;;13.40;10.27;;;;;;;10.31;100.00;98686.06;5028877;28;20260;-77
2023/04/28 08:02:40;;;;;;;14.83;10.30;;;;;;;10.48;100.00;98684.88;5034052;28;20197;-79
2023/04/28 08:05:09;;;;;;;15.70;10.97;;;;;;;10.50;100.00;98682.94;5029753;28;20213;-77
2023/04/28 08:07:38;;;;;;;14.73;10.33;;;;;;;10.54;100.00;98681.78;5027437;28;20198;-78
2023/04/28 08:10:09;;;;;;;15.00;11.13;;;;;;;10.54;100.00;98681.78;5030695;28;20225;-77
2023/04/28 08:12:37;;;;;;;12.50;10.07;;;;;;;10.70;100.00;98689.47;5036016;28;20259;-77
2023/04/28 08:15:06;;;;;;;13.93;10.63;;;;;;;10.81;100.00;98692.22;5033354;28;20736;-77
2023/04/28 08:17:34;;;;;;;16.33;11.07;;;;;;;10.79;100.00;98694.09;5032444;28;20198;-77
2023/04/28 08:20:11;;;;;;;12.30;10.20;;;;;;;10.87;100.00;98697.03;5035846;28;20194;-77
2023/04/28 08:22:39;;;;;;;13.67;10.47;;;;;;;10.91;100.00;98701.19;5032812;28;20227;-77
2023/04/28 08:25:09;;;;;;;13.30;10.57;;;;;;;10.91;100.00;98698.53;5035884;28;20201;-77
2023/04/28 08:27:38;;;;;;;13.43;10.50;;;;;;;10.85;100.00;98707.75;5029026;28;20202;-77
2023/04/28 08:30:08;;;;;;;16.20;11.73;;;;;;;11.00;100.00;98712.88;5032807;28;20224;-77
2023/04/28 08:32:38;;;;;;;13.70;10.90;;;;;;;11.06;100.00;98708.00;5034360;28;20299;-77
2023/04/28 08:35:09;;;;;;;12.93;10.73;;;;;;;11.25;100.00;98712.78;5035712;28;20244;-77
2023/04/28 08:37:38;;;;;;;13.53;11.60;;;;;;;11.01;100.00;98709.31;5035641;28;20216;-77
2023/04/28 08:40:09;;;;;;;13.53;10.47;;;;;;;11.27;100.00;98700.25;5001362;28;20252;-77
2023/04/28 08:42:38;;;;;;;15.37;11.03;;;;;;;11.42;100.00;98704.44;5031491;28;20232;-77
2023/04/28 08:45:08;;;;;;;13.07;10.40;;;;;;;11.35;100.00;98705.00;5035333;28;20205;-77
2023/04/28 08:47:38;;;;;;;14.20;10.33;;;;;;;11.48;100.00;98703.09;5025987;28;20241;-78
2023/04/28 08:50:11;;;;;;;13.90;10.23;;;;;;;11.44;100.00;98699.84;5033632;28;20268;-77
2023/04/28 08:52:40;;;;;;;11.73;9.50;;;;;;;11.50;100.00;98708.31;5033411;28;20198;-77
2023/04/28 08:55:11;;;;;;;11.10;9.37;;;;;;;11.44;100.00;98710.47;5027700;28;20221;-77
2023/04/28 08:57:44;;;;;;;11.80;9.57;;;;;;;11.51;100.00;98713.50;5029890;28;20718;-77
2023/04/28 09:00:13;;;;;;;11.53;9.63;;;;;;;11.29;100.00;98703.66;5032115;28;20228;-77
2023/04/28 09:02:41;;;;;;;11.27;9.10;;;;;;;11.31;100.00;98709.69;5030925;28;20224;-76
2023/04/28 09:05:12;;;;;;;12.80;9.70;;;;;;;11.14;100.00;98710.94;5034140;28;20190;-77
2023/04/28 09:07:41;;;;;;;13.17;9.60;;;;;;;11.22;100.00;98718.31;5031299;28;20194;-77
2023/04/28 09:10:17;;;;;;;11.73;10.00;;;;;;;11.23;100.00;98711.22;5030662;28;20221;-77
2023/04/28 09:12:46;;;;;;;12.83;10.13;;;;;;;11.28;100.00;98717.84;5028509;28;20248;-77
2023/04/28 09:15:33;;;;;;;12.13;9.73;;;;;;;11.46;100.00;98719.13;5032418;28;20240;-77
2023/04/28 09:18:02;;;;;;;12.50;10.70;;;;;;;11.29;100.00;98716.94;5029793;28;20206;-77
2023/04/28 09:20:34;;;;;;;10.40;9.37;;;;;;;11.50;100.00;98719.78;5029411;28;20200;-76
2023/04/28 09:23:16;;;;;;;16.23;11.13;;;;;;;11.31;100.00;98714.16;5032312;28;20233;-77
2023/04/28 09:26:01;;;;;;;10.50;9.40;;;;;;;11.61;100.00;98714.50;5034914;28;20254;-77
2023/04/28 09:28:29;;;;;;;11.23;9.53;;;;;;;11.64;100.00;98713.44;5034809;28;20201;-77
2023/04/28 09:30:57;;;;;;;11.30;10.10;;;;;;;11.65;100.00;98709.81;5028078;28;20747;-77
2023/04/28 09:33:26;;;;;;;13.73;9.90;;;;;;;11.52;100.00;98706.41;5030501;28;20202;-76
2023/04/28 09:35:56;;;;;;;12.20;9.73;;;;;;;11.63;100.00;98712.56;5027446;28;20288;-77
2023/04/28 09:38:25;;;;;;;11.00;9.57;;;;;;;11.41;100.00;98709.84;5029013;28;20205;-77
2023/04/28 09:40:57;;;;;;;11.37;9.73;;;;;;;11.50;100.00;98717.13;5032126;28;20208;-77
2023/04/28 09:43:27;;;;;;;12.37;9.63;;;;;;;11.40;100.00;98719.63;5030178;28;20278;-77
2023/04/28 09:45:56;;;;;;;12.60;10.87;;;;;;;11.40;100.00;98724.91;5031596;28;20256;-77
2023/04/28 09:48:29;;;;;;;11.57;10.37;;;;;;;11.47;100.00;98727.94;5029675;28;20198;-77
2023/04/28 09:50:59;;;;;;;12.73;10.80;;;;;;;11.42;100.00;98719.50;5030850;28;20214;-77
2023/04/28 09:53:29;;;;;;;16.37;12.10;;;;;;;11.38;100.00;98726.81;5028513;28;20232;-77
2023/04/28 09:55:59;;;;;;;14.13;11.83;;;;;;;11.44;100.00;98728.19;5028847;28;20637;-77
2023/04/28 09:58:29;;;;;;;13.73;11.17;;;;;;;11.50;100.00;98726.88;5031374;28;20375;-77
2023/04/28 10:00:58;;;;;;;14.83;11.67;;;;;;;11.54;100.00;98726.53;5030250;28;20244;-77
2023/04/28 10:03:28;;;;;;;12.90;11.50;;;;;;;11.45;100.00;98722.75;5032559;28;20204;-77
2023/04/28 10:05:59;;;;;;;14.27;11.57;;;;;;;11.44;100.00;98731.69;5027028;28;20244;-77
2023/04/28 10:08:28;;;;;;;13.63;12.23;;;;;;;11.60;100.00;98730.53;5033789;28;20201;-76
2023/04/28 10:10:57;;;;;;;14.80;12.37;;;;;;;11.48;100.00;98729.63;5033699;28;20233;-77
2023/04/28 10:13:25;;;;;;;15.40;11.77;;;;;;;11.56;100.00;98723.75;5028185;28;20208;-77
2023/04/28 10:15:56;;;;;;;16.57;12.43;;;;;;;11.25;100.00;98727.84;5033589;28;20204;-77
2023/04/28 10:18:26;;;;;;;14.60;12.90;;;;;;;11.52;100.00;98732.91;5032192;28;20205;-77
2023/04/28 10:21:02;;;;;;;15.67;12.63;;;;;;;11.30;100.00;98723.06;5024724;28;20247;-78
2023/04/28 10:23:51;;;;;;;14.20;12.67;;;;;;;11.47;100.00;98720.84;5033485;28;20201;-77
2023/04/28 10:26:20;;;;;;;16.70;13.27;;;;;;;11.39;100.00;98723.22;5021293;28;20332;-77
2023/04/28 10:28:50;;;;;;;15.27;13.67;;;;;;;11.61;100.00;98727.78;5030588;28;20357;-77
2023/04/28 10:31:21;;;;;;;16.67;14.87;;;;;;;11.76;100.00;98734.56;5027936;28;20284;-77
2023/04/28 10:33:50;;;;;;;16.30;13.93;;;;;;;11.79;100.00;98732.66;5032377;28;20194;-77
2023/04/28 10:36:51;;;;;;;18.40;14.73;;;;;;;11.80;100.00;98721.13;5030109;28;20240;-77
2023/04/28 10:39:21;;;;;;;18.50;14.27;;;;;;;11.94;100.00;98718.22;5033371;28;20193;-76
2023/04/28 10:41:50;;;;;;;17.33;14.50;;;;;;;11.87;100.00;98699.31;5025951;28;20268;-77
2023/04/28 10:44:43;;;;;;;14.70;13.03;;;;;;;11.95;100.00;98701.34;5027600;28;20202;-77
2023/04/28 10:47:13;;;;;;;16.67;14.27;;;;;;;12.06;100.00;98706.66;5032948;28;20357;-77
2023/04/28 10:50:10;;;;;;;18.33;14.23;;;;;;;12.26;100.00;98697.19;5031749;28;20201;-77
2023/04/28 10:52:52;;;;;;;15.57;13.77;;;;;;;12.06;100.00;98698.69;4980228;28;20197;-77
2023/04/28 10:55:31;;;;;;;15.70;13.43;;;;;;;12.24;100.00;98689.31;5029983;28;20198;-77
2023/04/28 10:58:33;;;;;;;17.23;14.67;;;;;;;12.36;100.00;98682.22;5027273;28;20201;-77
2023/04/28 11:01:27;;;;;;;17.93;15.63;;;;;;;12.63;100.00;98675.66;5021874;28;20205;-77
2023/04/28 11:04:01;;;;;;;19.93;14.57;;;;;;;12.73;100.00;98664.16;5031402;28;20197;-77
2023/04/28 11:06:33;;;;;;;19.47;14.63;;;;;;;12.57;100.00;98661.06;5029650;28;20204;-76
2023/04/28 11:09:04;;;;;;;19.17;15.07;;;;;;;12.72;100.00;98672.25;5032482;28;20200;-77
2023/04/28 11:11:33;;;;;;;17.37;15.20;;;;;;;12.78;100.00;98674.44;5025487;28;20225;-77
2023/04/28 11:14:33;;;;;;;20.10;15.43;;;;;;;12.87;100.00;98665.72;5032422;28;20194;-77
2023/04/28 11:17:04;;;;;;;18.40;14.97;;;;;;;12.88;100.00;98662.06;5029957;28;20213;-77
2023/04/28 11:19:34;;;;;;;20.43;15.73;;;;;;;12.57;100.00;98653.09;5027828;28;20197;-77
2023/04/28 11:22:08;;;;;;;21.17;16.27;;;;;;;12.76;100.00;98655.09;5032423;28;20303;-77
2023/04/28 11:24:38;;;;;;;23.53;17.43;;;;;;;12.54;100.00;98651.50;5030380;28;20247;-77
2023/04/28 11:27:07;;;;;;;22.03;17.17;;;;;;;12.61;100.00;98652.72;5027072;28;20315;-77
2023/04/28 11:29:37;;;;;;;20.13;15.93;;;;;;;12.80;100.00;98657.38;5028519;28;20229;-77